Tiempo atmosférico en la estación meteorológica de Zorita, Cáceres (413 m.)



Fecha
DESCASC
Temp. máxima en grados centígrados (hora)
DESCASC
Temp. mínima en grados centígrados (hora)
DESCASC
Temp. media en grados centígrados
DESCASC
Racha de viento máxima en m/sg (hora)
DESCASC
Velocidad máxima media en intervalos de 10 minutos(hora)
DESCASC
Precipitaciones diarias en mm
DESCASC
Precipitaciones de 00:00 a 06:00 en mm
DESCASC
Precipitaciones de 06:00 a 12:00 en mm
DESCASC
Precipitaciones de 12:00 a 18:00 en mm
DESCASC
Precipitaciones de 18:00 a 24:00 en mm
DESCASC
15-08-2019 36.6 (18:40) 21.3 (08:00) 28.9 9.44 (16:00) 6.67 (16:50) 0 0 0 0 0
14-08-2019 35.1 (17:10) 20 (00:00) 27.5 10.56 (17:00) 6.11 (16:10) 0 0 0 0 0
13-08-2019 33 (17:10) 17.4 (00:00) 25.2 8.89 (17:50) 5.56 (01:00) 0 0 0 0 0
12-08-2019 30.7 (17:50) 13.9 (00:00) 22.3 10.28 (01:00) 7.78 (01:00) 0 0 0 0 0
11-08-2019 27.4 (16:10) 16.9 (00:00) 22.1 11.67 (17:10) 8.61 (21:20) 0 0 0 0 0
10-08-2019 30.3 (17:50) 16 (00:00) 23.1 8.61 (15:30) 5.83 (05:40) 0 0 0 0 0
09-08-2019 29.5 (16:30) 19.2 (00:00) 24.4 15.28 (16:50) 10.83 (16:50) 0 0 0 0 0
08-08-2019 33.9 (18:20) 18.6 (00:00) 26.3 10.56 (15:10) 6.94 (19:50) 0 0 0 0 0
07-08-2019 27.9 (17:10) 17.6 (00:00) 22.8 9.17 (15:20) 5.83 (15:20) 0 0 0 0 0
06-08-2019 34.1 (18:20) 16.9 (00:00) 25.5 9.72 (17:20) 6.39 (19:00) 0 0 0 0 0
05-08-2019 35.2 (18:00) 16.8 (00:00) 26 9.72 (00:10) 7.22 (01:30) 0 0 0 0 0
04-08-2019 34.1 (18:00) 17.5 (00:00) 25.8 9.72 (23:50) 6.94 (23:40) 0 0 0 0 0
03-08-2019 35.3 (17:40) 18.4 (00:00) 26.8 9.72 (18:20) 6.11 (03:10) 0 0 0 0 0
02-08-2019 34.4 (19:50) 14.8 (00:00) 24.6 12.22 (00:40) 8.61 (00:40) 0 0 0 0 0
01-08-2019 33.5 (18:10) 17.7 (00:00) 25.6 10.56 (16:50) 7.78 (20:00) 0 0 0 0 0
31-07-2019 35 (17:50) 17.5 (00:00) 26.3 10.28 (23:59) 6.94 (23:59) 0 0 0 0 0
30-07-2019 32.7 (18:10) 15 (00:00) 23.9 12.22 (02:40) 8.89 (02:30) 0 0 0 0 0
29-07-2019 32 (17:10) 15.3 (00:00) 23.7 11.39 (17:40) 7.5 (18:30) 0 0 0 0 0
28-07-2019 30.7 (18:10) 16.2 (00:00) 23.5 8.06 (19:10) 5.56 (02:50) 0 0 0 0 0
27-07-2019 24.9 (20:00) 14.9 (00:00) 19.9 11.11 (00:50) 7.22 (10:00) 1 0 0 1 0
26-07-2019 30 (17:40) 17.7 (00:00) 23.9 12.78 (13:40) 8.61 (00:50) 0 0 0 0 0
25-07-2019 35.3 (16:50) 20.4 (00:00) 27.8 12.22 (23:59) 8.89 (23:59) 0 0 0 0 0
24-07-2019 37.3 (17:20) 25.7 (00:00) 31.5 8.61 (18:50) 5.28 (00:20) 0 0 0 0 0
23-07-2019 37.2 (17:20) 22.4 (00:00) 29.8 13.89 (09:40) 8.89 (09:20) 4.4 4.2 0.2 0 0
22-07-2019 39.2 (18:30) 25.7 (00:00) 32.5 10 (01:40) 7.5 (01:40) 0 0 0 0 0
21-07-2019 38.2 (17:30) 19 (00:00) 28.6 11.11 (01:20) 8.61 (01:40) 0 0 0 0 0
20-07-2019 37.2 (17:50) 20.7 (00:00) 29 11.11 (01:50) 8.33 (01:10) 0 0 0 0 0
19-07-2019 37.9 (18:10) 22.6 (00:00) 30.3 8.89 (23:40) 6.67 (23:59) 0 0 0 0 0

Gráficas

Temp. máximas Temp. mínimas Temp. medias Precipitaciones Rachas de viento máximas Velocidades máximas media en intervalos de 10 minutos

Datos horarios

Fecha y hora oficial Temperatura (ºC) Velocidad del viento (km/h) Dirección del viento Racha (km/h) Dirección de racha Precipitación (mm) Presión (hPa) Tendencia (hPa) Humedad (%)
2019-08-17 23:00:00 29.3 8 Oeste 19 Noroeste 0 -- -- 13
2019-08-17 22:00:00 30.5 13 Noroeste 18 Oeste 0 -- -- 11
2019-08-17 21:00:00 33.9 13 Oeste 28 Oeste 0 -- -- 9
2019-08-17 20:00:00 36.4 15 Oeste 31 Oeste 0 -- -- 10
2019-08-17 19:00:00 36.7 19 Oeste 33 Oeste 0 -- -- 13
2019-08-17 18:00:00 37.1 19 Oeste 33 Sudoeste 0 -- -- 14
2019-08-17 17:00:00 36.9 20 Sudoeste 41 Sudoeste 0 -- -- 14
2019-08-17 16:00:00 36 22 Sudoeste 31 Sudoeste 0 -- -- 17
2019-08-17 15:00:00 34.5 12 Sur 26 Sur 0 -- -- 19
2019-08-17 14:00:00 33 8 Sur 19 Sur 0 -- -- 24
2019-08-17 13:00:00 31.1 10 Sur 18 Sur 0 -- -- 27
2019-08-17 12:00:00 29.2 8 Sur 15 Este 0 -- -- 32
2019-08-17 11:00:00 26.6 9 Este 18 Este 0 -- -- 40
2019-08-17 10:00:00 23.9 13 Este 19 Este 0 -- -- 45
2019-08-17 09:00:00 21.4 10 Este 17 Este 0 -- -- 53
2019-08-17 08:00:00 19.4 8 Este 13 Este 0 -- -- 60
2019-08-17 07:00:00 19.8 7 Este 13 Este 0 -- -- 57
2019-08-17 06:00:00 21 8 Nordeste 11 Norte 0 -- -- 51
2019-08-17 05:00:00 20.6 5 Sudeste 8 Sudeste 0 -- -- 52
2019-08-17 04:00:00 23.6 5 Noroeste 12 Noroeste 0 -- -- 40
2019-08-17 03:00:00 25.3 10 Oeste 21 Oeste 0 -- -- 36
2019-08-17 02:00:00 27.5 18 Noroeste 29 Noroeste 0 -- -- 31
2019-08-17 01:00:00 28.9 21 Noroeste 33 Noroeste 0 -- -- 31
2019-08-17 00:00:00 30.2 25 Noroeste 35 Noroeste 0 -- -- 31
2019-08-16 23:00:00 30.2 9 Noroeste 13 Oeste 0 -- -- 28
2019-08-16 22:00:00 32.2 8 Oeste 19 Sudoeste 0 -- -- 25
2019-08-16 21:00:00 34.2 14 Sudoeste 28 Sudoeste 0 -- -- 24
2019-08-16 20:00:00 36.4 18 Sudoeste 39 Sur 0 -- -- 22
2019-08-16 19:00:00 36.4 27 Sudoeste 35 Sur 0 -- -- 22
2019-08-16 18:00:00 36.3 21 Sudoeste 34 Sudoeste 0 -- -- 25
2019-08-16 17:00:00 36.4 19 Sudoeste 31 Sudoeste 0 -- -- 25
2019-08-16 16:00:00 35.9 15 Sudoeste 28 Sur 0 -- -- 25
2019-08-16 15:00:00 34.4 13 Sudoeste 24 Sudoeste 0 -- -- 27
2019-08-16 14:00:00 32.8 8 Oeste 18 Oeste 0 -- -- 31
2019-08-16 13:00:00 30.9 7 Sur 16 Sudoeste 0 -- -- 34
2019-08-16 12:00:00 29 8 Sudeste 21 Este 0 -- -- 37
2019-08-16 11:00:00 26.7 10 Sudeste 18 Este 0 -- -- 43
2019-08-16 10:00:00 25.1 10 Este 13 Este 0 -- -- 45
2019-08-16 09:00:00 23 6 Nordeste 10 Nordeste 0 -- -- 48
2019-08-16 08:00:00 20.8 2 Este 8 Nordeste 0 -- -- 49
2019-08-16 07:00:00 22.4 3 Nordeste 14 Norte 0 -- -- 44
2019-08-16 06:00:00 23 8 Norte 16 Noroeste 0 -- -- 45
2019-08-16 05:00:00 24.6 13 Noroeste 18 Noroeste 0 -- -- 41
2019-08-16 04:00:00 25.9 17 Noroeste 25 Noroeste 0 -- -- 32
2019-08-16 03:00:00 26.9 25 Noroeste 29 Noroeste 0 -- -- 30
2019-08-16 02:00:00 27.5 20 Noroeste 27 Noroeste 0 -- -- 27
2019-08-16 01:00:00 28.8 17 Noroeste 24 Noroeste 0 -- -- 26
2019-08-16 00:00:00 30.3 11 Noroeste 14 Noroeste 0 -- -- 24
2019-08-15 23:00:00 30.5 13 Noroeste 15 Noroeste 0 -- -- 24
2019-08-15 22:00:00 32 2 Noroeste 14 Oeste 0 -- -- 27
2019-08-15 21:00:00 34.7 11 Oeste 23 Oeste 0 -- -- 20
2019-08-15 20:00:00 36 17 Oeste 28 Noroeste 0 -- -- 18
2019-08-15 19:00:00 36.6 14 Noroeste 31 Oeste 0 -- -- 19
2019-08-15 18:00:00 36.5 13 Oeste 30 Sur 0 -- -- 21
2019-08-15 17:00:00 36.3 19 Sudoeste 34 Sudoeste 0 -- -- 26
2019-08-15 16:00:00 36 15 Sudoeste 34 Sur 0 -- -- 25
2019-08-15 15:00:00 35 10 Sudoeste 29 Sudoeste 0 -- -- 27
2019-08-15 14:00:00 34.1 7 Sudoeste 17 Oeste 0 -- -- 24
2019-08-15 13:00:00 32.2 8 Sudeste 14 Sur 0 -- -- 27
2019-08-15 12:00:00 30.6 8 Sur 14 Sudeste 0 -- -- 27
2019-08-15 11:00:00 28.3 6 Este 13 Este 0 -- -- 32
2019-08-15 10:00:00 25.7 6 Este 12 Este 0 -- -- 35
2019-08-15 09:00:00 24.1 5 Este 9 Nordeste 0 -- -- 33
2019-08-15 08:00:00 21.3 5 Nordeste 9 Noroeste 0 -- -- 37
2019-08-15 07:00:00 21.8 6 Norte 21 Noroeste 0 -- -- 37
2019-08-15 06:00:00 22.8 8 Norte 15 Noroeste 0 -- -- 40
2019-08-15 05:00:00 23.4 6 Nordeste 15 Noroeste 0 -- -- 29
2019-08-15 04:00:00 25.5 11 Noroeste 27 Noroeste 0 -- -- 31
2019-08-15 03:00:00 25.2 21 Noroeste 26 Noroeste 0 -- -- 31
2019-08-15 02:00:00 26.3 20 Noroeste 30 Noroeste 0 -- -- 26
2019-08-15 01:00:00 28.4 14 Noroeste 17 Noroeste 0 -- -- 22
2019-08-15 00:00:00 28.5 13 Noroeste 19 Noroeste 0 -- -- 23
2019-08-14 23:00:00 28.7 11 Noroeste 14 Noroeste 0 -- -- 20
2019-08-14 22:00:00 29.7 12 Noroeste 16 Noroeste 0 -- -- 19
2019-08-14 21:00:00 32.7 12 Noroeste 22 Oeste 0 -- -- 16
2019-08-14 20:00:00 34.2 15 Noroeste 27 Sudoeste 0 -- -- 15
2019-08-14 19:00:00 34.7 15 Oeste 29 Noroeste 0 -- -- 15
2019-08-14 18:00:00 34.8 15 Noroeste 31 Oeste 0 -- -- 15
2019-08-14 17:00:00 35 16 Oeste 38 Oeste 0 -- -- 15
2019-08-14 16:00:00 34.2 18 Sudoeste 33 Sur 0 -- -- 18
2019-08-14 15:00:00 33.7 18 Sudoeste 31 Oeste 0 -- -- 18
2019-08-14 14:00:00 32.5 16 Oeste 27 Sudoeste 0 -- -- 18
2019-08-14 13:00:00 31.3 13 Sur 20 Sur 0 -- -- 18
2019-08-14 12:00:00 29.7 9 Sur 15 Sur 0 -- -- 19
2019-08-14 11:00:00 28 8 Sudoeste 12 Sur 0 -- -- 20
2019-08-14 10:00:00 25.9 6 Este 10 Este 0 -- -- 21
2019-08-14 09:00:00 22.7 6 Este 8 Norte 0 -- -- 24
2019-08-14 08:00:00 20.9 9 Norte 19 Noroeste 0 -- -- 25
2019-08-14 07:00:00 20.1 13 Noroeste 16 Noroeste 0 -- -- 27
2019-08-14 06:00:00 20.7 6 Noroeste 11 Noroeste 0 -- -- 25
2019-08-14 05:00:00 21 2 Noroeste 9 Nordeste 0 -- -- 26
2019-08-14 04:00:00 22.5 6 Nordeste 10 Este 0 -- -- 21
2019-08-14 03:00:00 23.7 8 Norte 14 Noroeste 0 -- -- 23
2019-08-14 02:00:00 25.8 12 Noroeste 18 Norte 0 -- -- 21
2019-08-14 01:00:00 26 12 Norte 15 Norte 0 -- -- 18
2019-08-14 00:00:00 26.2 14 Norte 21 Norte 0 -- -- 17
2019-08-13 23:00:00 27.1 15 Norte 22 Norte 0 -- -- 16
2019-08-13 22:00:00 27.1 15 Norte 18 Norte 0 -- -- 19
2019-08-13 21:00:00 30.3 15 Noroeste 29 Noroeste 0 -- -- 17
2019-08-13 20:00:00 31.9 12 Noroeste 30 Noroeste 0 -- -- 17
2019-08-13 19:00:00 32.5 15 Sudoeste 24 Oeste 0 -- -- 16
2019-08-13 18:00:00 32.6 12 Sur 32 Sudoeste 0 -- -- 16
2019-08-13 17:00:00 32.8 11 Oeste 30 Oeste 0 -- -- 15
2019-08-13 16:00:00 31.9 12 Sudoeste 26 Sudoeste 0 -- -- 15
2019-08-13 15:00:00 31.6 9 Oeste 22 Sur 0 -- -- 15
2019-08-13 14:00:00 30.3 8 Noroeste 15 Noroeste 0 -- -- 17
2019-08-13 13:00:00 29.5 12 Sudeste 19 Sudeste 0 -- -- 20
2019-08-13 12:00:00 28.6 9 Sudeste 16 Este 0 -- -- 20
2019-08-13 11:00:00 27 11 Sudeste 17 Este 0 -- -- 21
2019-08-13 10:00:00 23.8 4 Oeste 7 Oeste 0 -- -- 23
2019-08-13 09:00:00 21.9 3 Sudeste 4 Sudeste 0 -- -- 25
2019-08-13 08:00:00 18.7 0 Calma 11 Norte 0 -- -- 27
2019-08-13 07:00:00 17.7 10 Noroeste 18 Noroeste 0 -- -- 30
2019-08-13 06:00:00 18.9 12 Noroeste 13 Noroeste 0 -- -- 28
2019-08-13 05:00:00 19.4 4 Norte 12 Nordeste 0 -- -- 26
2019-08-13 04:00:00 19.9 10 Nordeste 12 Nordeste 0 -- -- 27
2019-08-13 03:00:00 21.3 8 Noroeste 20 Noroeste 0 -- -- 27
2019-08-13 02:00:00 21.6 13 Noroeste 23 Noroeste 0 -- -- 27
2019-08-13 01:00:00 21.8 20 Noroeste 25 Noroeste 0 -- -- 25
2019-08-13 00:00:00 24.8 17 Noroeste 27 Noroeste 0 -- -- 20
2019-08-12 23:00:00 24.2 15 Noroeste 23 Noroeste 0 -- -- 22
2019-08-12 22:00:00 25 16 Noroeste 32 Noroeste 0 -- -- 21
2019-08-12 21:00:00 27.5 19 Noroeste 31 Noroeste 0 -- -- 17
2019-08-12 20:00:00 29.1 20 Noroeste 33 Noroeste 0 -- -- 16
2019-08-12 19:00:00 29.5 21 Sudoeste 31 Sudoeste 0 -- -- 21
2019-08-12 18:00:00 30.5 15 Sudoeste 27 Sudoeste 0 -- -- 19
2019-08-12 17:00:00 29.7 18 Sur 37 Sudoeste 0 -- -- 19
2019-08-12 16:00:00 28.4 12 Este 28 Este 0 -- -- 22
2019-08-12 15:00:00 27.8 12 Sur 21 Sur 0 -- -- 23
2019-08-12 14:00:00 26.4 11 Sur 25 Sudoeste 0 -- -- 26
2019-08-12 13:00:00 25.2 9 Sudeste 21 Sudeste 0 -- -- 28
2019-08-12 12:00:00 23.8 9 Este 18 Este 0 -- -- 31
2019-08-12 11:00:00 21.4 7 Este 15 Este 0 -- -- 37
2019-08-12 10:00:00 19.3 8 Este 12 Este 0 -- -- 44
2019-08-12 09:00:00 17.6 3 Este 15 Noroeste 0 -- -- 48
2019-08-12 08:00:00 14.6 12 Norte 23 Noroeste 0 -- -- 54
2019-08-12 07:00:00 14 3 Este 19 Noroeste 0 -- -- 57
2019-08-12 06:00:00 14.9 15 Noroeste 19 Noroeste 0 -- -- 55
2019-08-12 05:00:00 15.9 12 Noroeste 22 Noroeste 0 -- -- 53
2019-08-12 04:00:00 16.3 20 Noroeste 28 Noroeste 0 -- -- 52
2019-08-12 03:00:00 17.4 19 Noroeste 31 Noroeste 0 -- -- 47
2019-08-12 02:00:00 18.7 21 Noroeste 34 Noroeste 0 -- -- 41
2019-08-12 01:00:00 20.2 28 Noroeste 37 Noroeste 0 -- -- 35
2019-08-12 00:00:00 20.7 14 Noroeste 26 Noroeste 0 -- -- 32
2019-08-11 23:00:00 22.3 18 Noroeste 31 Noroeste 0 -- -- 29
2019-08-11 22:00:00 23.3 22 Noroeste 40 Oeste 0 -- -- 27
2019-08-11 21:00:00 25.3 30 Noroeste 41 Noroeste 0 -- -- 25
2019-08-11 20:00:00 26.1 24 Noroeste 39 Oeste 0 -- -- 23
2019-08-11 19:00:00 26.6 26 Noroeste 40 Noroeste 0 -- -- 19
2019-08-11 18:00:00 27.3 27 Noroeste 42 Oeste 0 -- -- 18
2019-08-11 17:00:00 27 23 Oeste 39 Oeste 0 -- -- 23
2019-08-11 16:00:00 27.1 20 Oeste 38 Oeste 0 -- -- 26
2019-08-11 15:00:00 26.4 17 Oeste 38 Oeste 0 -- -- 29
2019-08-11 14:00:00 25.3 20 Oeste 35 Oeste 0 -- -- 33
2019-08-11 13:00:00 23.8 15 Oeste 28 Oeste 0 -- -- 37
2019-08-11 12:00:00 22.4 15 Sudoeste 26 Sudoeste 0 -- -- 48
2019-08-11 11:00:00 20.8 13 Sudoeste 23 Oeste 0 -- -- 52
2019-08-11 10:00:00 19.2 15 Oeste 23 Oeste 0 -- -- 53
2019-08-11 09:00:00 17.7 17 Noroeste 30 Noroeste 0 -- -- 58
2019-08-11 08:00:00 17 19 Noroeste 28 Noroeste 0 -- -- 60
2019-08-11 07:00:00 17.4 18 Noroeste 24 Noroeste 0 -- -- 60
2019-08-11 06:00:00 17.7 12 Sudoeste 27 Sudoeste 0 -- -- 60
2019-08-11 05:00:00 20.1 6 Oeste 24 Oeste 0 -- -- 51
2019-08-11 04:00:00 20.1 17 Noroeste 31 Noroeste 0 -- -- 51
2019-08-11 03:00:00 20.2 21 Noroeste 30 Noroeste 0 -- -- 52
2019-08-11 02:00:00 21.2 23 Noroeste 33 Noroeste 0 -- -- 50
2019-08-11 01:00:00 22.9 19 Noroeste 28 Noroeste 0 -- -- 43
2019-08-11 00:00:00 23.7 13 Noroeste 18 Noroeste 0 -- -- 31
2019-08-10 23:00:00 25.2 13 Norte 20 Noroeste 0 -- -- 26
2019-08-10 22:00:00 25.7 14 Noroeste 22 Noroeste 0 -- -- 24
2019-08-10 21:00:00 27.7 8 Oeste 24 Sur 0 -- -- 25
2019-08-10 20:00:00 29.1 18 Sur 28 Sudoeste 0 -- -- 24
2019-08-10 19:00:00 30.2 17 Sudoeste 26 Sudoeste 0 -- -- 23
2019-08-10 18:00:00 30.1 13 Sudoeste 28 Sur 0 -- -- 27
2019-08-10 17:00:00 30 13 Sur 29 Sudoeste 0 -- -- 29
2019-08-10 16:00:00 29.5 15 Sur 31 Sudoeste 0 -- -- 32
2019-08-10 15:00:00 28.7 17 Sudoeste 27 Sudoeste 0 -- -- 34
2019-08-10 14:00:00 27.8 10 Sur 22 Oeste 0 -- -- 36
2019-08-10 13:00:00 26.6 12 Sudoeste 23 Sudoeste 0 -- -- 37
2019-08-10 12:00:00 25.3 10 Noroeste 27 Oeste 0 -- -- 41
2019-08-10 11:00:00 23.4 13 Oeste 21 Oeste 0 -- -- 49
2019-08-10 10:00:00 21.1 5 Oeste 14 Noroeste 0 -- -- 60
2019-08-10 09:00:00 18.4 7 Noroeste 15 Noroeste 0 -- -- 70
2019-08-10 08:00:00 16.2 13 Noroeste 17 Noroeste 0 -- -- 78
2019-08-10 07:00:00 16.7 11 Noroeste 22 Noroeste 0 -- -- 76
2019-08-10 06:00:00 17.5 17 Noroeste 26 Noroeste 0 -- -- 72
2019-08-10 05:00:00 18.4 14 Noroeste 24 Noroeste 0 -- -- 69
2019-08-10 04:00:00 19.7 19 Noroeste 25 Noroeste 0 -- -- 64
2019-08-10 03:00:00 19.7 18 Noroeste 23 Noroeste 0 -- -- 64
2019-08-10 02:00:00 19.3 8 Noroeste 14 Noroeste 0 -- -- 65
2019-08-10 01:00:00 20.3 9 Noroeste 20 Noroeste 0 -- -- 62
2019-08-10 00:00:00 21.6 15 Noroeste 22 Noroeste 0 -- -- 59
2019-08-09 23:00:00 22.4 17 Noroeste 26 Noroeste 0 -- -- 57
2019-08-09 22:00:00 22.9 19 Noroeste 32 Noroeste 0 -- -- 61
2019-08-09 21:00:00 24.1 24 Noroeste 37 Noroeste 0 -- -- 58
2019-08-09 20:00:00 25.6 27 Noroeste 40 Noroeste 0 -- -- 51
2019-08-09 19:00:00 25.7 28 Noroeste 45 Noroeste 0 -- -- 52
2019-08-09 18:00:00 25.9 32 Noroeste 49 Noroeste 0 -- -- 59
2019-08-09 17:00:00 26.2 38 Noroeste 55 Noroeste 0 -- -- 63
2019-08-09 16:00:00 28.6 18 Sudoeste 30 Sudoeste 0 -- -- 54
2019-08-09 15:00:00 28.8 14 Sur 28 Sudoeste 0 -- -- 54
2019-08-09 14:00:00 27.3 14 Sudoeste 22 Sudoeste 0 -- -- 58
2019-08-09 13:00:00 24.3 6 Sur 20 Sudoeste 0 -- -- 70
2019-08-09 12:00:00 23.6 12 Sudoeste 21 Sur 0 -- -- 72
2019-08-09 11:00:00 22.7 10 Sudoeste 18 Sudoeste 0 -- -- 75
2019-08-09 10:00:00 21.5 14 Sudoeste 19 Sudoeste 0 -- -- 80
2019-08-09 09:00:00 21 2 Sudoeste 9 Sudeste 0 -- -- 81
2019-08-09 08:00:00 20 6 Noroeste 13 Sudoeste 0 -- -- 85
2019-08-09 07:00:00 19.5 5 Oeste 21 Sudoeste 0 -- -- 86
2019-08-09 06:00:00 20.1 14 Oeste 19 Oeste 0 -- -- 83
2019-08-09 05:00:00 20.5 9 Sudoeste 17 Sudoeste 0 -- -- 81
2019-08-09 04:00:00 21.6 13 Sudoeste 19 Sudoeste 0 -- -- 74
2019-08-09 03:00:00 23.3 8 Sudoeste 17 Oeste 0 -- -- 61
2019-08-09 02:00:00 24.6 14 Oeste 23 Noroeste 0 -- -- 55
2019-08-09 01:00:00 25.5 15 Noroeste 24 Noroeste 0 -- -- 52
2019-08-09 00:00:00 27.1 17 Oeste 26 Oeste 0 -- -- 47
2019-08-08 23:00:00 28.3 18 Noroeste 28 Oeste 0 -- -- 43
2019-08-08 22:00:00 29.5 18 Oeste 30 Noroeste 0 -- -- 39
2019-08-08 21:00:00 31.5 21 Oeste 32 Oeste 0 -- -- 34
2019-08-08 20:00:00 33 23 Oeste 37 Oeste 0 -- -- 30
2019-08-08 19:00:00 33.8 16 Oeste 37 Sudoeste 0 -- -- 27
2019-08-08 18:00:00 33.8 21 Sudoeste 36 Sudoeste 0 -- -- 26
2019-08-08 17:00:00 33.2 22 Sudoeste 34 Sudoeste 0 -- -- 25
2019-08-08 16:00:00 32 18 Sudoeste 38 Sur 0 -- -- 31
2019-08-08 15:00:00 30.7 14 Sur 26 Sudoeste 0 -- -- 31
2019-08-08 14:00:00 29.5 13 Sudoeste 26 Sudeste 0 -- -- 35
2019-08-08 13:00:00 28.3 15 Sur 25 Sur 0 -- -- 41
2019-08-08 12:00:00 27.2 12 Sur 20 Sur 0 -- -- 45
2019-08-08 11:00:00 25.4 7 Sur 13 Sudeste 0 -- -- 49
2019-08-08 10:00:00 24 5 Este 11 Este 0 -- -- 52
2019-08-08 09:00:00 22.2 6 Este 9 Noroeste 0 -- -- 58
2019-08-08 08:00:00 19.5 8 Noroeste 9 Noroeste 0 -- -- 64
2019-08-08 07:00:00 18.7 3 Norte 6 Nordeste 0 -- -- 67
2019-08-08 06:00:00 19.1 6 Nordeste 9 Sudeste 0 -- -- 66
2019-08-08 05:00:00 20.2 3 Sur 14 Noroeste 0 -- -- 61
2019-08-08 04:00:00 21.8 12 Noroeste 15 Noroeste 0 -- -- 55
2019-08-08 03:00:00 21 9 Noroeste 12 Noroeste 0 -- -- 60
2019-08-08 02:00:00 21.2 5 Norte 8 Norte 0 -- -- 59
2019-08-08 01:00:00 21.4 5 Norte 7 Norte 0 -- -- 57
2019-08-08 00:00:00 22.1 2 Sudoeste 4 Sur 0 -- -- 56
2019-08-07 23:00:00 23.5 2 Sur 14 Sudoeste 0 -- -- 53
2019-08-07 22:00:00 24.4 12 Sudoeste 18 Sudoeste 0 -- -- 51
2019-08-07 21:00:00 25.7 12 Sur 22 Sur 0 -- -- 47
2019-08-07 20:00:00 27.4 16 Sur 22 Sur 0 -- -- 44
2019-08-07 19:00:00 26.8 16 Sur 29 Oeste 0 -- -- 42
2019-08-07 18:00:00 27.4 12 Oeste 27 Noroeste 0 -- -- 37
2019-08-07 17:00:00 27.7 15 Noroeste 25 Noroeste 0 -- -- 35
2019-08-07 16:00:00 27.2 13 Noroeste 33 Oeste 0 -- -- 37
2019-08-07 15:00:00 27.2 16 Oeste 27 Oeste 0 -- -- 38
2019-08-07 14:00:00 25.8 16 Noroeste 24 Noroeste 0 -- -- 42
2019-08-07 13:00:00 24.9 10 Sudoeste 21 Oeste 0 -- -- 51
2019-08-07 12:00:00 23.2 4 Sur 10 Sudoeste 0 -- -- 57
2019-08-07 11:00:00 21.5 3 Este 9 Sudeste 0 -- -- 65
2019-08-07 10:00:00 19.5 5 Sudeste 9 Este 0 -- -- 74
2019-08-07 09:00:00 18.5 3 Sudeste 5 Este 0 -- -- 79
2019-08-07 08:00:00 17.8 0 Calma 5 Sudeste 0 -- -- 80
2019-08-07 07:00:00 17.9 3 Sudeste 7 Sudoeste 0 -- -- 75
2019-08-07 06:00:00 18.6 5 Sudoeste 8 Sudoeste 0 -- -- 75
2019-08-07 05:00:00 19.2 4 Sur 12 Sur 0 -- -- 72
2019-08-07 04:00:00 20.4 9 Sudoeste 14 Oeste 0 -- -- 64
2019-08-07 03:00:00 22.2 9 Oeste 15 Noroeste 0 -- -- 51
2019-08-07 02:00:00 23.1 13 Noroeste 18 Oeste 0 -- -- 47
2019-08-07 01:00:00 25.1 14 Oeste 22 Noroeste 0 -- -- 43
2019-08-07 00:00:00 26.3 17 Noroeste 25 Noroeste 0 -- -- 40
2019-08-06 23:00:00 27.7 13 Noroeste 29 Oeste 0 -- -- 37
2019-08-06 22:00:00 29.4 17 Oeste 22 Oeste 0 -- -- 30
2019-08-06 21:00:00 31.3 14 Oeste 27 Oeste 0 -- -- 24
2019-08-06 20:00:00 32.9 19 Oeste 33 Oeste 0 -- -- 22
2019-08-06 19:00:00 33.8 23 Sudoeste 34 Sudoeste 0 -- -- 18
2019-08-06 18:00:00 33.3 22 Sudoeste 35 Sudoeste 0 -- -- 21
2019-08-06 17:00:00 33.2 17 Sur 33 Sudoeste 0 -- -- 27
2019-08-06 16:00:00 32.4 18 Sudoeste 27 Sur 0 -- -- 29
2019-08-06 15:00:00 31 16 Sur 26 Sudoeste 0 -- -- 31
2019-08-06 14:00:00 29.3 14 Sur 24 Sur 0 -- -- 37
2019-08-06 13:00:00 27.7 9 Sur 19 Sur 0 -- -- 40
2019-08-06 12:00:00 25.5 9 Sur 21 Sudeste 0 -- -- 48
2019-08-06 11:00:00 23.6 12 Sudeste 21 Sudeste 0 -- -- 52
2019-08-06 10:00:00 22.1 12 Este 17 Este 0 -- -- 54
2019-08-06 09:00:00 20.4 10 Este 14 Este 0 -- -- 55
2019-08-06 08:00:00 17.4 5 Norte 9 Noroeste 0 -- -- 64
2019-08-06 07:00:00 17.6 6 Este 12 Sudeste 0 -- -- 68
2019-08-06 06:00:00 18 6 Sudeste 8 Este 0 -- -- 65
2019-08-06 05:00:00 18.7 4 Sudeste 8 Sur 0 -- -- 62
2019-08-06 04:00:00 21.9 4 Sur 18 Noroeste 0 -- -- 45
2019-08-06 03:00:00 25 14 Noroeste 23 Noroeste 0 -- -- 37
2019-08-06 02:00:00 25.7 18 Noroeste 23 Noroeste 0 -- -- 34
2019-08-06 01:00:00 27.1 15 Noroeste 19 Noroeste 0 -- -- 30
2019-08-06 00:00:00 27.8 9 Noroeste 14 Noroeste 0 -- -- 18
2019-08-05 23:00:00 28.4 12 Noroeste 18 Noroeste 0 -- -- 14
2019-08-05 22:00:00 29.5 13 Noroeste 18 Noroeste 0 -- -- 12
2019-08-05 21:00:00 33.4 11 Oeste 20 Oeste 0 -- -- 11
2019-08-05 20:00:00 34.6 15 Oeste 27 Oeste 0 -- -- 13
2019-08-05 19:00:00 34.9 15 Oeste 28 Sudoeste 0 -- -- 13
2019-08-05 18:00:00 35.2 13 Sudoeste 31 Sudoeste 0 -- -- 13
2019-08-05 17:00:00 34.4 17 Sudoeste 30 Sudoeste 0 -- -- 15
2019-08-05 16:00:00 33.3 17 Sudoeste 29 Sudoeste 0 -- -- 19
2019-08-05 15:00:00 32.3 13 Sudoeste 22 Sudoeste 0 -- -- 21
2019-08-05 14:00:00 30 8 Sur 18 Sur 0 -- -- 29
2019-08-05 13:00:00 27.8 10 Sur 19 Sur 0 -- -- 36
2019-08-05 12:00:00 26.1 9 Sur 16 Sur 0 -- -- 42
2019-08-05 11:00:00 23.8 9 Sur 14 Sudeste 0 -- -- 50
2019-08-05 10:00:00 21.2 9 Este 15 Sudeste 0 -- -- 59
2019-08-05 09:00:00 19.6 11 Este 14 Este 0 -- -- 63
2019-08-05 08:00:00 17.7 6 Este 11 Este 0 -- -- 68
2019-08-05 07:00:00 17.1 5 Sudeste -- -- 0 -- -- 72
2019-08-05 06:00:00 17.9 5 Sudeste 8 Sudeste 0 -- -- 67
2019-08-05 05:00:00 19.8 4 Noroeste 14 Noroeste 0 -- -- 54
2019-08-05 04:00:00 21.1 9 Oeste 19 Noroeste 0 -- -- 46
2019-08-05 03:00:00 23.1 14 Noroeste 25 Noroeste 0 -- -- 43
2019-08-05 02:00:00 24.9 22 Noroeste 34 Noroeste 0 -- -- 39
2019-08-05 01:00:00 25.9 25 Noroeste 35 Noroeste 0 -- -- 36
2019-08-05 00:00:00 27.2 24 Noroeste 35 Noroeste 0 -- -- 32
2019-08-04 23:00:00 28.2 18 Noroeste 23 Noroeste 0 -- -- 31
2019-08-04 22:00:00 28.9 6 Sudoeste 21 Sudoeste 0 -- -- 31
2019-08-04 21:00:00 31.4 19 Sur 26 Sur 0 -- -- 30
2019-08-04 20:00:00 32.7 20 Sur 27 Sur 0 -- -- 28
2019-08-04 19:00:00 33.6 16 Sur 25 Sudoeste 0 -- -- 28
2019-08-04 18:00:00 34.1 14 Sur 25 Sur 0 -- -- 25
2019-08-04 17:00:00 33.4 13 Sur 25 Sur 0 -- -- 24
2019-08-04 16:00:00 32.7 13 Sudoeste 26 Sur 0 -- -- 26
2019-08-04 15:00:00 31 16 Sur 26 Sur 0 -- -- 26
2019-08-04 14:00:00 29.2 10 Sur 21 Sur 0 -- -- 38
2019-08-04 13:00:00 27.6 10 Sur 19 Sur 0 -- -- 43
2019-08-04 12:00:00 25.6 8 Sur 17 Sudeste 0 -- -- 48
2019-08-04 11:00:00 24 8 Sudeste 13 Sudeste 0 -- -- 56
2019-08-04 10:00:00 21.8 10 Sudeste 17 Este 0 -- -- 61
2019-08-04 09:00:00 19.8 10 Este 19 Este 0 -- -- 69
2019-08-04 08:00:00 18.5 13 Nordeste 19 Nordeste 0 -- -- 70
2019-08-04 07:00:00 17.5 5 Sudeste 9 Sudeste 0 -- -- 78
2019-08-04 06:00:00 18.6 5 Sudeste 14 Oeste 0 -- -- 72
2019-08-04 05:00:00 20.1 11 Oeste 15 Noroeste 0 -- -- 61
2019-08-04 04:00:00 23 13 Noroeste 18 Noroeste 0 -- -- 49
2019-08-04 03:00:00 24.6 15 Noroeste 24 Noroeste 0 -- -- 45
2019-08-04 02:00:00 25.9 17 Noroeste 28 Noroeste 0 -- -- 38
2019-08-04 01:00:00 27.1 19 Noroeste 25 Noroeste 0 -- -- 30
2019-08-04 00:00:00 27.9 8 Noroeste 12 Noroeste 0 -- -- 21
2019-08-03 23:00:00 28.7 8 Noroeste 13 Noroeste 0 -- -- 19
2019-08-03 22:00:00 30.1 11 Noroeste 18 Oeste 0 -- -- 18
2019-08-03 21:00:00 33.2 17 Oeste 24 Oeste 0 -- -- 16
2019-08-03 20:00:00 34.3 14 Sudoeste 32 Oeste 0 -- -- 15
2019-08-03 19:00:00 35 18 Oeste 35 Sudoeste 0 -- -- 14
2019-08-03 18:00:00 35.2 14 Oeste 28 Sudoeste 0 -- -- 14
2019-08-03 17:00:00 34.5 15 Sudoeste 30 Sudoeste 0 -- -- 19
2019-08-03 16:00:00 34.1 15 Oeste 32 Sudoeste 0 -- -- 19
2019-08-03 15:00:00 33.4 11 Sur 24 Sur 0 -- -- 18
2019-08-03 14:00:00 32.1 15 Sudoeste 27 Sur 0 -- -- 24
2019-08-03 13:00:00 30 11 Sur 19 Sur 0 -- -- 36
2019-08-03 12:00:00 28.4 7 Sur 17 Sur 0 -- -- 41
2019-08-03 11:00:00 26.4 9 Sudeste 17 Sudeste 0 -- -- 45
2019-08-03 10:00:00 23.8 14 Este 21 Este 0 -- -- 47
2019-08-03 09:00:00 20.6 15 Este 21 Este 0 -- -- 54
2019-08-03 08:00:00 20 11 Nordeste 19 Nordeste 0 -- -- 42
2019-08-03 07:00:00 18.9 12 Este 15 Este 0 -- -- 39
2019-08-03 06:00:00 19.5 7 Nordeste 9 Nordeste 0 -- -- 41
2019-08-03 05:00:00 22.3 6 Noroeste 17 Oeste 0 -- -- 46
2019-08-03 04:00:00 22.8 13 Oeste 27 Noroeste 0 -- -- 43
2019-08-03 03:00:00 25.6 20 Noroeste 27 Noroeste 0 -- -- 39
2019-08-03 02:00:00 26 17 Noroeste 23 Noroeste 0 -- -- 28
2019-08-03 01:00:00 25.7 7 Oeste 9 Oeste 0 -- -- 26
2019-08-03 00:00:00 26.9 5 Sudoeste 8 Oeste 0 -- -- 24
2019-08-02 23:00:00 26.2 5 Oeste 8 Sudoeste 0 -- -- 26
2019-08-02 22:00:00 29.2 0 Calma 10 Sur 0 -- -- 20
2019-08-02 21:00:00 33.7 5 Sudoeste 10 Sudoeste 0 -- -- 14
2019-08-02 20:00:00 34.3 8 Oeste 13 Sudoeste 0 -- -- 13
2019-08-02 19:00:00 34.3 8 Sur 16 Sur 0 -- -- 10
2019-08-02 18:00:00 34 11 Sur 21 Sur 0 -- -- 12
2019-08-02 17:00:00 33.8 12 Sur 24 Sudoeste 0 -- -- 14
2019-08-02 16:00:00 33.4 13 Sudoeste 25 Sudoeste 0 -- -- 13
2019-08-02 15:00:00 32 12 Sudeste 20 Sur 0 -- -- 15
2019-08-02 14:00:00 30.3 10 Sudoeste 19 Sudoeste 0 -- -- 21
2019-08-02 13:00:00 28 9 Sudoeste 18 Sudoeste 0 -- -- 30
2019-08-02 12:00:00 25.3 10 Sur 15 Sur 0 -- -- 39
2019-08-02 11:00:00 23.1 6 Sudeste 15 Este 0 -- -- 45
2019-08-02 10:00:00 19.9 12 Este 21 Este 0 -- -- 56
2019-08-02 09:00:00 17.4 14 Este 22 Este 0 -- -- 64
2019-08-02 08:00:00 15.5 8 Este 12 Este 0 -- -- 66
2019-08-02 07:00:00 15 5 Este 10 Sudeste 0 -- -- 71
2019-08-02 06:00:00 17.4 5 Sudeste 13 Oeste 0 -- -- 57
2019-08-02 05:00:00 19.3 9 Oeste 17 Oeste 0 -- -- 46
2019-08-02 04:00:00 20.7 14 Oeste 17 Oeste 0 -- -- 40
2019-08-02 03:00:00 22.4 12 Noroeste 27 Noroeste 0 -- -- 34
2019-08-02 02:00:00 23.8 22 Noroeste 39 Noroeste 0 -- -- 30
2019-08-02 01:00:00 25.6 27 Noroeste 44 Noroeste 0 -- -- 27
2019-08-02 00:00:00 26.5 22 Noroeste 29 Noroeste 0 -- -- 27
2019-08-01 23:00:00 27.5 14 Noroeste 26 Oeste 0 -- -- 27
2019-08-01 22:00:00 28.5 13 Sudoeste 32 Sudoeste 0 -- -- 29
2019-08-01 21:00:00 30.7 22 Sudoeste 37 Sur 0 -- -- 26
2019-08-01 20:00:00 31.9 28 Sur 38 Sur 0 -- -- 25
2019-08-01 19:00:00 32.7 23 Sur 33 Sur 0 -- -- 24
2019-08-01 18:00:00 33.3 22 Sudoeste 34 Sur 0 -- -- 23
2019-08-01 17:00:00 33.2 17 Sudoeste 38 Sur 0 -- -- 23
2019-08-01 16:00:00 32.5 15 Sudoeste 26 Sur 0 -- -- 24
2019-08-01 15:00:00 31.3 8 Sur 26 Sudoeste 0 -- -- 23
2019-08-01 14:00:00 29.6 12 Sudoeste 24 Sudoeste 0 -- -- 33
2019-08-01 13:00:00 28 10 Sur 22 Sur 0 -- -- 35
2019-08-01 12:00:00 26.7 11 Sur 20 Sur 0 -- -- 37
2019-08-01 11:00:00 25.1 6 Sudeste 14 Este 0 -- -- 40
2019-08-01 10:00:00 22.7 11 Este 16 Este 0 -- -- 45
2019-08-01 09:00:00 20.2 12 Este 17 Este 0 -- -- 50
2019-08-01 08:00:00 18.4 9 Nordeste 11 Nordeste 0 -- -- 54
2019-08-01 07:00:00 17.9 6 Sudeste 9 Sudeste 0 -- -- 60
2019-08-01 06:00:00 19.1 7 Sudeste 15 Noroeste 0 -- -- 53
2019-08-01 05:00:00 21.9 13 Noroeste 17 Noroeste 0 -- -- 40
2019-08-01 04:00:00 22.2 13 Noroeste 19 Noroeste 0 -- -- 39
2019-08-01 03:00:00 24.6 16 Noroeste 35 Noroeste 0 -- -- 35
2019-08-01 02:00:00 26.1 27 Noroeste 36 Noroeste 0 -- -- 32
2019-08-01 01:00:00 27 25 Noroeste 34 Noroeste 0 -- -- 31
2019-08-01 00:00:00 27.7 25 Noroeste 37 Noroeste 0 -- -- 27
2019-07-31 23:00:00 28.6 17 Noroeste 23 Noroeste 0 -- -- 17
2019-07-31 22:00:00 29.6 7 Oeste 13 Sudoeste 0 -- -- 23
2019-07-31 21:00:00 31.5 10 Sur 21 Sudoeste 0 -- -- 23
2019-07-31 20:00:00 34.3 13 Sur 19 Sudoeste 0 -- -- 16
2019-07-31 19:00:00 35 8 Sudoeste 24 Oeste 0 -- -- 15
2019-07-31 18:00:00 35 14 Sudoeste 30 Oeste 0 -- -- 15
2019-07-31 17:00:00 34.1 6 Oeste 28 Sudoeste 0 -- -- 15
2019-07-31 16:00:00 33.5 10 Sudoeste 25 Sudoeste 0 -- -- 16
2019-07-31 15:00:00 33 13 Sudoeste 27 Sur 0 -- -- 13
2019-07-31 14:00:00 31.4 13 Sur 21 Sur 0 -- -- 21
2019-07-31 13:00:00 30.2 13 Sur 23 Sudeste 0 -- -- 26
2019-07-31 12:00:00 29.1 13 Sudeste 30 Sudeste 0 -- -- 30
2019-07-31 11:00:00 27 19 Este 30 Este 0 -- -- 34
2019-07-31 10:00:00 23.3 17 Este 22 Este 0 -- -- 30
2019-07-31 09:00:00 21.3 9 Este 14 Este 0 -- -- 31
2019-07-31 08:00:00 18.2 3 Oeste 8 Oeste 0 -- -- 33
2019-07-31 07:00:00 19.9 7 Nordeste 20 Nordeste 0 -- -- 32
2019-07-31 06:00:00 19.4 8 Norte 19 Noroeste 0 -- -- 32
2019-07-31 05:00:00 19.7 12 Noroeste 21 Noroeste 0 -- -- 31
2019-07-31 04:00:00 22.5 2 Este 13 Noroeste 0 -- -- 26
2019-07-31 03:00:00 23.3 7 Norte 22 Noroeste 0 -- -- 25
2019-07-31 02:00:00 23 8 Noroeste 19 Norte 0 -- -- 26
2019-07-31 01:00:00 25.7 15 Noroeste 23 Noroeste 0 -- -- 23
2019-07-31 00:00:00 25 18 Noroeste 28 Noroeste 0 -- -- 24
2019-07-30 23:00:00 26.2 17 Noroeste 23 Noroeste 0 -- -- 22
2019-07-30 22:00:00 27.2 15 Noroeste 26 Noroeste 0 -- -- 21
2019-07-30 21:00:00 30 20 Noroeste 28 Noroeste 0 -- -- 15
2019-07-30 20:00:00 31.8 15 Oeste 29 Sudoeste 0 -- -- 15
2019-07-30 19:00:00 32.2 15 Oeste 38 Sudoeste 0 -- -- 19
2019-07-30 18:00:00 32.4 15 Sudoeste 27 Sudoeste 0 -- -- 14
2019-07-30 17:00:00 31.9 11 Sudoeste 27 Oeste 0 -- -- 16
2019-07-30 16:00:00 31 14 Sudoeste 24 Sudoeste 0 -- -- 19
2019-07-30 15:00:00 29.4 5 Sur 21 Sudoeste 0 -- -- 23
2019-07-30 14:00:00 27.7 7 Sur 20 Oeste 0 -- -- 25
2019-07-30 13:00:00 26.2 4 Nordeste 16 Este 0 -- -- 26
2019-07-30 12:00:00 23.7 7 Sudeste 17 Este 0 -- -- 34
2019-07-30 11:00:00 22.3 5 Este 14 Sudeste 0 -- -- 37
2019-07-30 10:00:00 19.5 12 Noroeste 22 Noroeste 0 -- -- 42
2019-07-30 09:00:00 17.4 19 Noroeste 27 Noroeste 0 -- -- 47
2019-07-30 08:00:00 15.6 23 Noroeste 28 Noroeste 0 -- -- 51
2019-07-30 07:00:00 15.3 15 Noroeste 29 Noroeste 0 -- -- 54
2019-07-30 06:00:00 16.1 23 Noroeste 31 Noroeste 0 -- -- 52
2019-07-30 05:00:00 17.2 24 Noroeste 33 Noroeste 0 -- -- 48
2019-07-30 04:00:00 17.9 23 Noroeste 34 Noroeste 0 -- -- 45
2019-07-30 03:00:00 19.2 26 Noroeste 44 Noroeste 0 -- -- 41
2019-07-30 02:00:00 20.8 29 Noroeste 39 Noroeste 0 -- -- 36
2019-07-30 01:00:00 22.2 28 Noroeste 38 Noroeste 0 -- -- 32
2019-07-30 00:00:00 23.1 20 Noroeste 33 Noroeste 0 -- -- 33
2019-07-29 23:00:00 24.9 20 Noroeste 29 Noroeste 0 -- -- 27
2019-07-29 22:00:00 26.9 18 Oeste 33 Oeste 0 -- -- 28
2019-07-29 21:00:00 29.3 19 Oeste 35 Oeste 0 -- -- 24
2019-07-29 20:00:00 30.7 23 Oeste 39 Noroeste 0 -- -- 18
2019-07-29 19:00:00 31 26 Noroeste 40 Noroeste 0 -- -- 19
2019-07-29 18:00:00 31.7 23 Noroeste 41 Noroeste 0 -- -- 23
2019-07-29 17:00:00 31.6 19 Oeste 33 Oeste 0 -- -- 25
2019-07-29 16:00:00 30.3 22 Sur 40 Sudoeste 0 -- -- 30
2019-07-29 15:00:00 29.1 17 Sur 30 Sudoeste 0 -- -- 32
2019-07-29 14:00:00 26.9 14 Sur 25 Sur 0 -- -- 35
2019-07-29 13:00:00 25.5 14 Sudoeste 23 Sudoeste 0 -- -- 38
2019-07-29 12:00:00 23.1 8 Sudoeste 18 Sur 0 -- -- 42
2019-07-29 11:00:00 21.2 9 Sudoeste 15 Sudoeste 0 -- -- 47
2019-07-29 10:00:00 19.8 6 Sudoeste 9 Sudoeste 0 -- -- 51
2019-07-29 09:00:00 18.2 7 Oeste 14 Noroeste 0 -- -- 57
2019-07-29 08:00:00 15.4 8 Oeste 10 Oeste 0 -- -- 70
2019-07-29 07:00:00 16 3 Sur 8 Oeste 0 -- -- 67
2019-07-29 06:00:00 17.8 6 Sudoeste 18 Noroeste 0 -- -- 61
2019-07-29 05:00:00 19.5 13 Noroeste 19 Oeste 0 -- -- 54
2019-07-29 04:00:00 21.1 14 Oeste 28 Noroeste 0 -- -- 53
2019-07-29 03:00:00 23.4 22 Noroeste 31 Noroeste 0 -- -- 46
2019-07-29 02:00:00 24.1 26 Noroeste 35 Noroeste 0 -- -- 46
2019-07-29 01:00:00 24.6 22 Noroeste 29 Noroeste 0 -- -- 41
2019-07-29 00:00:00 25.4 8 Noroeste 13 Noroeste 0 -- -- 39
2019-07-28 23:00:00 25.9 6 Sudoeste 10 Sudoeste 0 -- -- 39
2019-07-28 22:00:00 27 8 Sudoeste 21 Sur 0 -- -- 38
2019-07-28 21:00:00 28.6 16 Sur 25 Sudoeste 0 -- -- 35
2019-07-28 20:00:00 29.6 17 Sur 29 Oeste 0 -- -- 35
2019-07-28 19:00:00 30.3 14 Sudoeste 26 Oeste 0 -- -- 33
2019-07-28 18:00:00 30.6 13 Sudoeste 27 Sudoeste 0 -- -- 32
2019-07-28 17:00:00 30.4 10 Oeste 28 Sudoeste 0 -- -- 32
2019-07-28 16:00:00 29.5 14 Sudoeste 23 Sudoeste 0 -- -- 34
2019-07-28 15:00:00 28.7 8 Oeste 25 Sudoeste 0 -- -- 37
2019-07-28 14:00:00 27.6 14 Sur 26 Sur 0 -- -- 41
2019-07-28 13:00:00 26.5 10 Sur 18 Sur 0 -- -- 45
2019-07-28 12:00:00 24.4 6 Sudeste 17 Sur 0 -- -- 50
2019-07-28 11:00:00 22.1 8 Sudeste 18 Sudeste 0 -- -- 58
2019-07-28 10:00:00 20.3 12 Este 20 Este 0 -- -- 65
2019-07-28 09:00:00 17.7 14 Este 21 Nordeste 0 -- -- 74
2019-07-28 08:00:00 16.2 5 Sudeste 8 Nordeste 0 -- -- 77
2019-07-28 07:00:00 16.8 8 Nordeste 16 Noroeste 0 -- -- 74
2019-07-28 06:00:00 17.3 12 Noroeste 15 Noroeste 0 -- -- 75
2019-07-28 05:00:00 18.1 9 Noroeste 19 Noroeste 0 -- -- 70
2019-07-28 04:00:00 19.1 17 Noroeste 22 Norte 0 -- -- 66
2019-07-28 03:00:00 19.8 17 Noroeste 25 Noroeste 0 -- -- 62
2019-07-28 02:00:00 20.4 19 Noroeste 24 Noroeste 0 -- -- 58
2019-07-28 01:00:00 20.7 15 Noroeste 22 Noroeste 0 -- -- 58
2019-07-28 00:00:00 20.9 13 Noroeste 17 Norte 0 -- -- 59
2019-07-27 23:00:00 21.6 0 Calma 7 Norte 0 -- -- 75
2019-07-26 12:00:00 -- -- -- -- -- -- -- -- --
2019-07-26 11:00:00 -- -- -- -- -- -- -- -- --
2019-07-26 10:00:00 -- -- -- -- -- -- -- -- --
2019-07-26 09:00:00 18.9 13 Noroeste 27 Noroeste 0 -- -- 65
2019-07-26 08:00:00 18 13 Noroeste 20 Noroeste 0 -- -- 73
2019-07-26 07:00:00 18.2 9 Oeste 22 Sudoeste 0 -- -- 73
2019-07-26 06:00:00 20.1 12 Oeste 18 Sudoeste 0 -- -- 71
2019-07-26 05:00:00 21.4 12 Oeste 25 Oeste 0 -- -- 67
2019-07-26 04:00:00 22.4 18 Oeste 30 Oeste 0 -- -- 63
2019-07-26 03:00:00 23.2 23 Noroeste 35 Noroeste 0 -- -- 61
2019-07-26 02:00:00 24 28 Noroeste 37 Noroeste 0 -- -- 59
2019-07-26 01:00:00 25 26 Noroeste 41 Noroeste 0 -- -- 56
2019-07-26 00:00:00 26.8 32 Noroeste 44 Oeste 0 -- -- 48
2019-07-25 23:00:00 28.6 21 Oeste 30 Oeste 0 -- -- 33
2019-07-25 22:00:00 29.6 16 Noroeste 29 Oeste 0 -- -- 24
2019-07-25 21:00:00 31.8 24 Oeste 35 Noroeste 0 -- -- 20
2019-07-25 20:00:00 33.8 18 Oeste 38 Oeste 0 -- -- 22
2019-07-25 19:00:00 34.6 18 Oeste 35 Oeste 0 -- -- 21
2019-07-25 18:00:00 34.9 18 Sudoeste 37 Oeste 0 -- -- 21
2019-07-25 17:00:00 34.9 24 Sudoeste 40 Sudoeste 0 -- -- 21
2019-07-25 16:00:00 33.4 18 Sudoeste 31 Sudoeste 0 -- -- 23
2019-07-25 15:00:00 33.4 15 Sudoeste 29 Sudoeste 0 -- -- 26
2019-07-25 14:00:00 32.6 12 Sudoeste 28 Sudoeste 0 -- -- 28
2019-07-25 13:00:00 31 13 Sur 22 Sur 0 -- -- 31
2019-07-25 12:00:00 29.1 7 Sudoeste 15 Sudoeste 0 -- -- 36
2019-07-25 11:00:00 27.5 7 Sur 12 Sur 0 -- -- 38
2019-07-25 10:00:00 26.1 5 Este 13 Este 0 -- -- 39
2019-07-25 09:00:00 23.5 10 Este 13 Este 0 -- -- 47
2019-07-25 08:00:00 21.4 5 Este 8 Este 0 -- -- 49
2019-07-25 07:00:00 20.4 5 Norte 10 Sur 0 -- -- 53
2019-07-25 06:00:00 21.6 6 Sur 11 Noroeste 0 -- -- 53
2019-07-25 05:00:00 24.1 11 Noroeste 19 Oeste 0 -- -- 38
2019-07-25 04:00:00 24.6 18 Sudoeste 30 Noroeste 0 -- -- 37
2019-07-25 03:00:00 27.3 25 Noroeste 37 Noroeste 0 -- -- 34
2019-07-25 02:00:00 27.7 27 Noroeste 38 Noroeste 0 -- -- 33
2019-07-25 01:00:00 29.6 27 Noroeste 34 Noroeste 0 -- -- 27
2019-07-25 00:00:00 29.9 11 Noroeste 17 Oeste 0 -- -- 30
2019-07-24 23:00:00 31.1 3 Sudoeste 12 Oeste 0 -- -- 29
2019-07-24 22:00:00 33 8 Sudoeste 19 Sudoeste 0 -- -- 29
2019-07-24 21:00:00 35.2 13 Sudoeste 22 Sudoeste 0 -- -- 26
2019-07-24 20:00:00 36.5 15 Sudoeste 28 Sudoeste 0 -- -- 23
2019-07-24 19:00:00 37.2 14 Sudoeste 31 Sudoeste 0 -- -- 23
2019-07-24 18:00:00 37.2 12 Sudoeste 25 Sudoeste 0 -- -- 23
2019-07-24 17:00:00 36.8 8 Sur 29 Sur 0 -- -- 24
2019-07-24 16:00:00 36.3 14 Sur 25 Sudeste 0 -- -- 24
2019-07-24 15:00:00 35.7 14 Sudoeste 27 Sudoeste 0 -- -- 24
2019-07-24 14:00:00 35.2 15 Sur 28 Sur 0 -- -- 26
2019-07-24 13:00:00 33.5 11 Sur 19 Sur 0 -- -- 30
2019-07-24 12:00:00 32.2 11 Sur 22 Sudeste 0 -- -- 33
2019-07-24 11:00:00 31 12 Sudeste 22 Sudeste 0 -- -- 33
2019-07-24 10:00:00 29.3 14 Este 22 Este 0 -- -- 36
2019-07-24 09:00:00 27.1 10 Este 18 Este 0 -- -- 41
2019-07-24 08:00:00 26.9 13 Este 19 Este 0 -- -- 40
2019-07-24 07:00:00 26.3 13 Nordeste 22 Este 0 -- -- 41
2019-07-24 06:00:00 26.1 15 Este 19 Este 0 -- -- 41
2019-07-24 05:00:00 27.4 8 Este 18 Nordeste 0 -- -- 38
2019-07-24 04:00:00 27.7 14 Nordeste 19 Nordeste 0 -- -- 37
2019-07-24 03:00:00 27.7 15 Nordeste 23 Nordeste 0 -- -- 38
2019-07-24 02:00:00 28 15 Nordeste 23 Este 0 -- -- 39
2019-07-24 01:00:00 28.7 13 Noroeste 28 Noroeste 0 -- -- 38
2019-07-24 00:00:00 30.6 10 Noroeste 22 Norte 0 -- -- 31
2019-07-23 23:00:00 30.8 12 Noroeste 17 Noroeste 0 -- -- 31
2019-07-23 22:00:00 32.3 9 Oeste 22 Sudoeste 0 -- -- 31
2019-07-23 21:00:00 34.6 16 Sudoeste 34 Oeste 0 -- -- 27
2019-07-23 20:00:00 36 18 Sudoeste 32 Sudoeste 0 -- -- 25
2019-07-23 19:00:00 37 12 Sudoeste 27 Sudoeste 0 -- -- 25
2019-07-23 18:00:00 37.1 17 Sudoeste 37 Sudeste 0 -- -- 26
2019-07-23 17:00:00 36.7 12 Sur 27 Sur 0 -- -- 27
2019-07-23 16:00:00 36 13 Sur 31 Sudoeste 0 -- -- 30
2019-07-23 15:00:00 35.1 13 Sudeste 30 Sudeste 0 -- -- 29
2019-07-23 14:00:00 34.3 16 Sur 28 Sur 0 -- -- 29
2019-07-23 13:00:00 33 14 Sudeste 28 Sudeste 0 -- -- 32
2019-07-23 12:00:00 30.9 15 Sudeste 22 Sudeste 0 -- -- 40
2019-07-23 11:00:00 26.6 7 Sudoeste 32 Este 0 -- -- 53
2019-07-23 10:00:00 24.1 23 Este 50 Nordeste 0.2 -- -- 54
2019-07-23 09:00:00 24.5 28 Este 38 Sudeste 0 -- -- 48
2019-07-23 08:00:00 22.5 8 Noroeste 13 Noroeste 0 -- -- 71
2019-07-23 07:00:00 23 3 Sur 7 Oeste 0 -- -- 66
2019-07-23 06:00:00 23.5 3 Sudoeste 15 Sur 0 -- -- 66
2019-07-23 05:00:00 24.3 13 Nordeste 26 Este 0 -- -- 60
2019-07-23 04:00:00 24.2 19 Sudeste 29 Nordeste 3 -- -- 64
2019-07-23 03:00:00 26.2 17 Este 37 Nordeste 1 -- -- 56
2019-07-23 02:00:00 30 17 Este 25 Este 0.2 -- -- 44
2019-07-23 01:00:00 31.5 9 Oeste 28 Sur 0 -- -- 31
2019-07-23 00:00:00 32.9 14 Oeste 31 Sur 0 -- -- 31
2019-07-22 23:00:00 33.3 7 Noroeste 8 Noroeste 0 -- -- 29
2019-07-22 22:00:00 34.8 0 Calma 17 Sudoeste 0 -- -- 29
2019-07-22 21:00:00 36.9 13 Sudoeste 27 Sudoeste 0 -- -- 26
2019-07-22 20:00:00 38.4 9 Sudeste 28 Sudeste 0 -- -- 23
2019-07-22 19:00:00 38.9 10 Sur 25 Sur 0 -- -- 22
2019-07-22 18:00:00 38.8 16 Sur 31 Sudeste 0 -- -- 23
2019-07-22 17:00:00 38.6 16 Sudeste 31 Sudeste 0 -- -- 23
2019-07-22 16:00:00 37.9 21 Sur 35 Sudeste 0 -- -- 24
2019-07-22 15:00:00 37 19 Sudeste 35 Sudeste 0 -- -- 22
2019-07-22 14:00:00 36.5 17 Sudeste 31 Sudeste 0 -- -- 21
2019-07-22 13:00:00 35.3 19 Sudeste 33 Sudeste 0 -- -- 23
2019-07-22 12:00:00 34.3 14 Sudeste 25 Este 0 -- -- 23
2019-07-22 11:00:00 32.4 16 Este 30 Este 0 -- -- 25
2019-07-22 10:00:00 30.8 18 Este 32 Este 0 -- -- 26
2019-07-22 09:00:00 28.8 17 Este 24 Este 0 -- -- 29
2019-07-22 08:00:00 26.5 13 Este 18 Este 0 -- -- 34
2019-07-22 07:00:00 26 4 Oeste 13 Noroeste 0 -- -- 38
2019-07-22 06:00:00 27.5 14 Noroeste 24 Noroeste 0 -- -- 37
2019-07-22 05:00:00 29 18 Noroeste 30 Noroeste 0 -- -- 37
2019-07-22 04:00:00 27.5 20 Noroeste 27 Noroeste 0 -- -- 34
2019-07-22 03:00:00 30 15 Noroeste 24 Noroeste 0 -- -- 24
2019-07-22 02:00:00 30.2 23 Noroeste 36 Noroeste 0 -- -- 22
2019-07-22 01:00:00 30.5 21 Noroeste 28 Noroeste 0 -- -- 20
2019-07-22 00:00:00 32.1 18 Noroeste 24 Noroeste 0 -- -- 19
2019-07-21 23:00:00 32.5 15 Noroeste 24 Noroeste 0 -- -- 21
2019-07-21 22:00:00 33.5 10 Noroeste 13 Noroeste 0 -- -- 23
2019-07-21 21:00:00 35.7 7 Oeste 16 Oeste 0 -- -- 21
2019-07-21 20:00:00 37 13 Sudoeste 22 Sudoeste 0 -- -- 20
2019-07-21 19:00:00 37.6 13 Sudoeste 26 Sudoeste 0 -- -- 22
2019-07-21 18:00:00 37.8 13 Sudoeste 28 Sudoeste 0 -- -- 21
2019-07-21 17:00:00 37.8 15 Sudoeste 25 Sur 0 -- -- 21
2019-07-21 16:00:00 36.9 14 Oeste 26 Sudoeste 0 -- -- 24
2019-07-21 15:00:00 36.4 12 Sudoeste 18 Sudoeste 0 -- -- 23
2019-07-21 14:00:00 34 9 Sudoeste 17 Sur 0 -- -- 31
2019-07-21 13:00:00 31.7 7 Sur 17 Sudeste 0 -- -- 34
2019-07-21 12:00:00 28.9 9 Sudeste 15 Este 0 -- -- 40
2019-07-21 11:00:00 26.8 9 Sudeste 17 Sudeste 0 -- -- 46
2019-07-21 10:00:00 24.4 10 Este 14 Este 0 -- -- 54
2019-07-21 09:00:00 22.4 7 Este 14 Este 0 -- -- 61
2019-07-21 08:00:00 19.1 7 Sudeste 11 Sudeste 0 -- -- 70
2019-07-21 07:00:00 20.4 4 Este 12 Noroeste 0 -- -- 65
2019-07-21 06:00:00 22.5 13 Noroeste 21 Noroeste 0 -- -- 55
2019-07-21 05:00:00 23.3 19 Noroeste 25 Noroeste 0 -- -- 53
2019-07-21 04:00:00 24.6 17 Noroeste 30 Noroeste 0 -- -- 47
2019-07-21 03:00:00 26.6 23 Noroeste 38 Noroeste 0 -- -- 39
2019-07-21 02:00:00 27.8 29 Noroeste 40 Noroeste 0 -- -- 36
2019-07-21 01:00:00 29.5 26 Noroeste 36 Noroeste 0 -- -- 31
2019-07-21 00:00:00 30.2 18 Noroeste 24 Noroeste 0 -- -- 26
2019-07-20 23:00:00 30.2 0 Calma 7 Sudoeste 0 -- -- 29
2019-07-20 22:00:00 32.6 5 Sur 16 Sudoeste 0 -- -- 26
2019-07-20 21:00:00 34.8 15 Sudoeste 28 Sur 0 -- -- 22
2019-07-20 20:00:00 35.9 21 Sur 31 Sur 0 -- -- 20
2019-07-20 19:00:00 36.7 24 Sur 33 Sur 0 -- -- 19
2019-07-20 18:00:00 37.1 19 Sudoeste 30 Sudoeste 0 -- -- 18
2019-07-20 17:00:00 37 17 Sur 32 Sur 0 -- -- 22
2019-07-20 16:00:00 35.7 12 Sudoeste 24 Sudoeste 0 -- -- 26
2019-07-20 15:00:00 35.3 10 Sudoeste 37 Sur 0 -- -- 26
2019-07-20 14:00:00 34.1 9 Sur 22 Sur 0 -- -- 27
2019-07-20 13:00:00 32.7 13 Sur 22 Sur 0 -- -- 29
2019-07-20 12:00:00 30.8 6 Oeste 15 Oeste 0 -- -- 31
2019-07-20 11:00:00 28.3 3 Sur 11 Sudeste 0 -- -- 35
2019-07-20 10:00:00 26.3 3 Nordeste 9 Nordeste 0 -- -- 43
2019-07-20 09:00:00 22.5 0 Calma 10 Sudeste 0 -- -- 57
2019-07-20 08:00:00 21.4 5 Sudeste 16 Oeste 0 -- -- 60
2019-07-20 07:00:00 23.2 14 Oeste 18 Noroeste 0 -- -- 46
2019-07-20 06:00:00 24.6 13 Noroeste 24 Noroeste 0 -- -- 44
2019-07-20 05:00:00 26 18 Noroeste 31 Noroeste 0 -- -- 40
2019-07-20 04:00:00 26.9 23 Noroeste 30 Noroeste 0 -- -- 38
2019-07-20 03:00:00 27.7 23 Noroeste 36 Noroeste 0 -- -- 36
2019-07-20 02:00:00 29.3 28 Noroeste 40 Noroeste 0 -- -- 34
2019-07-20 01:00:00 30.3 26 Noroeste 36 Noroeste 0 -- -- 30
2019-07-20 00:00:00 31.2 24 Noroeste 32 Noroeste 0 -- -- 25
2019-07-19 23:00:00 32.7 17 Noroeste 25 Noroeste 0 -- -- 20
2019-07-19 22:00:00 33.8 5 Oeste 8 Oeste 0 -- -- 23
2019-07-19 21:00:00 36.6 5 Sudoeste 19 Oeste 0 -- -- 20
2019-07-19 20:00:00 37.2 10 Sur 22 Sur 0 -- -- 20
2019-07-19 19:00:00 37.4 13 Sur 28 Sur 0 -- -- 20
2019-07-19 18:00:00 37.8 12 Sudoeste 29 Sudoeste 0 -- -- 21
2019-07-19 17:00:00 37.5 11 Noroeste 27 Sudoeste 0 -- -- 21
2019-07-19 16:00:00 37.2 6 Sur 21 Sur 0 -- -- 21
2019-07-19 15:00:00 36.2 10 Sur 21 Sudoeste 0 -- -- 22
2019-07-19 14:00:00 34.5 9 Sur 19 Sur 0 -- -- 27
2019-07-19 13:00:00 33 9 Sur 23 Sur 0 -- -- 29
2019-07-19 12:00:00 31.2 10 Sudeste 20 Sudeste 0 -- -- 32
2019-07-19 11:00:00 30 12 Sudeste 18 Sudeste 0 -- -- 33
2019-07-19 10:00:00 27.7 10 Sudeste 17 Sudeste 0 -- -- 35
2019-07-19 09:00:00 25.2 12 Este 15 Este 0 -- -- 40
2019-07-19 08:00:00 23.4 6 Este 18 Este 0 -- -- 41
2019-07-19 07:00:00 22.7 9 Este 15 Este 0 -- -- 41
2019-07-19 06:00:00 23.6 3 Noroeste 6 Nordeste 0 -- -- 40
2019-07-19 05:00:00 23.8 5 Oeste 18 Norte 0 -- -- 41
2019-07-19 04:00:00 25.8 13 Norte 25 Noroeste 0 -- -- 37
2019-07-19 03:00:00 27.5 22 Noroeste 27 Noroeste 0 -- -- 35
2019-07-19 02:00:00 28.2 21 Noroeste 27 Noroeste 0 -- -- 32
2019-07-19 01:00:00 28.5 15 Noroeste 19 Noroeste 0 -- -- 28
2019-07-19 00:00:00 30 10 Noroeste 14 Noroeste 0 -- -- 23